Time;durP1;ratioP1;P1;durP2;ratioP2;P2;SDS_P1;SDS_P2;PMS_P1;PMS_P2;Temp;Humidity;BMP_temperature;BMP_pressure;BME280_temperature;BME280_humidity;BME280_pressure;Samples;Min_cycle;Max_cycle;Signal;HPM_P1;HPM_P2
2022/07/30 00:00:07;;;;;;;0.08;0.08;;;21.20;99.90;;;;;;4933849;29;20451;-73
2022/07/30 00:02:33;;;;;;;0.55;0.55;;;21.00;99.90;;;;;;4932371;29;20046;-73
2022/07/30 00:04:59;;;;;;;0.90;0.90;;;20.80;99.90;;;;;;4934249;29;20043;-73
2022/07/30 00:07:25;;;;;;;0.38;0.38;;;20.70;99.90;;;;;;4932749;29;20027;-74
2022/07/30 00:09:50;;;;;;;0.35;0.35;;;20.60;99.90;;;;;;4932592;29;20396;-73
2022/07/30 00:12:16;;;;;;;0.35;0.35;;;20.60;99.90;;;;;;4932540;29;20043;-74
2022/07/30 00:14:42;;;;;;;0.50;0.47;;;20.70;99.90;;;;;;4932792;29;20492;-71
2022/07/30 00:17:08;;;;;;;0.22;0.22;;;20.80;99.90;;;;;;4934090;29;20512;-72
2022/07/30 00:19:34;;;;;;;6.10;1.02;;;20.80;99.90;;;;;;4932475;29;20078;-72
2022/07/30 00:22:00;;;;;;;0.57;0.57;;;20.70;99.90;;;;;;4933605;29;20035;-73
2022/07/30 00:24:26;;;;;;;1.17;1.08;;;20.60;99.90;;;;;;4933343;29;20608;-72
2022/07/30 00:26:51;;;;;;;0.10;0.10;;;20.60;99.90;;;;;;4933551;29;20032;-72
2022/07/30 00:29:17;;;;;;;1.55;1.33;;;20.50;99.90;;;;;;4931917;29;20028;-72
2022/07/30 00:31:43;;;;;;;0.05;0.05;;;20.40;99.90;;;;;;4933803;29;20031;-73
2022/07/30 00:34:09;;;;;;;6.82;2.28;;;20.40;99.90;;;;;;4932478;29;20138;-73
2022/07/30 00:36:34;;;;;;;0.73;0.55;;;20.40;99.90;;;;;;4932814;29;20070;-73
2022/07/30 00:39:00;;;;;;;0.32;0.32;;;20.30;99.90;;;;;;4933453;29;20581;-73
2022/07/30 00:41:26;;;;;;;0.47;0.43;;;20.40;99.90;;;;;;4933444;29;20036;-73
2022/07/30 00:43:52;;;;;;;0.57;0.57;;;20.30;99.90;;;;;;4933066;29;20122;-73
2022/07/30 00:46:18;;;;;;;0.40;0.40;;;20.30;99.90;;;;;;4933999;29;20111;-73
2022/07/30 00:48:44;;;;;;;0.10;0.10;;;20.10;99.90;;;;;;4916174;29;20444;-73
2022/07/30 00:51:10;;;;;;;0.40;0.32;;;20.00;99.90;;;;;;4932661;29;20035;-73
2022/07/30 00:53:37;;;;;;;1.17;0.63;;;19.80;99.90;;;;;;4933294;29;20507;-73
2022/07/30 00:56:04;;;;;;;0.90;0.73;;;19.50;99.90;;;;;;4932074;29;20036;-73
2022/07/30 00:58:30;;;;;;;2.63;0.85;;;19.60;99.90;;;;;;4932292;29;20028;-73
2022/07/30 01:00:56;;;;;;;0.40;0.40;;;19.70;99.90;;;;;;4933135;29;20083;-73
2022/07/30 01:03:22;;;;;;;0.50;0.45;;;19.80;99.90;;;;;;4936262;29;20111;-73
2022/07/30 01:05:48;;;;;;;1.55;1.38;;;19.70;99.90;;;;;;4941980;29;20023;-73
2022/07/30 01:08:14;;;;;;;0.35;0.35;;;19.80;99.90;;;;;;4950856;28;20484;-73
2022/07/30 01:10:40;;;;;;;0.65;0.63;;;19.60;99.90;;;;;;4946205;29;20023;-73
2022/07/30 01:13:08;;;;;;;2.72;1.25;;;19.70;99.90;;;;;;4955610;28;20558;-73
2022/07/30 01:15:34;;;;;;;1.35;0.75;;;19.60;99.90;;;;;;4946332;29;20519;-73
2022/07/30 01:18:04;;;;;;;0.82;0.57;;;19.60;99.90;;;;;;4935695;29;20027;-73
2022/07/30 01:20:39;;;;;;;1.10;0.90;;;19.20;99.90;;;;;;4951081;29;20075;-73
2022/07/30 01:23:30;;;;;;;0.15;0.15;;;19.20;99.90;;;;;;4950447;29;20028;-73
2022/07/30 01:26:03;;;;;;;;;;;19.40;99.90;;;;;;4970403;28;20488;-73
2022/07/30 01:28:38;;;;;;;0.45;0.45;;;19.50;99.90;;;;;;4970295;28;19914;-73
2022/07/30 01:31:06;;;;;;;0.03;0.03;;;19.40;99.90;;;;;;4970823;28;20460;-73
2022/07/30 01:33:35;;;;;;;0.43;0.43;;;19.40;99.90;;;;;;4969995;28;20028;-73
2022/07/30 01:36:02;;;;;;;0.70;0.70;;;19.50;99.90;;;;;;4970298;28;20035;-73
2022/07/30 01:38:30;;;;;;;1.00;0.80;;;19.20;99.90;;;;;;4970173;28;20028;-72
2022/07/30 01:40:57;;;;;;;0.20;0.20;;;19.30;99.90;;;;;;4955135;29;20110;-72
2022/07/30 01:43:24;;;;;;;3.40;0.68;;;19.20;99.90;;;;;;4969855;28;20203;-73
2022/07/30 01:45:52;;;;;;;0.20;0.20;;;19.20;99.90;;;;;;4970497;28;20476;-72
2022/07/30 01:48:22;;;;;;;1.50;1.40;;;19.20;99.90;;;;;;4970522;28;20471;-72
2022/07/30 01:50:53;;;;;;;1.42;1.13;;;19.10;99.90;;;;;;4955128;28;20031;-72
2022/07/30 01:53:25;;;;;;;0.20;0.20;;;19.10;99.90;;;;;;4969254;28;20035;-72
2022/07/30 01:55:52;;;;;;;0.35;0.35;;;19.10;99.90;;;;;;4969892;28;20086;-72
2022/07/30 01:58:22;;;;;;;1.80;1.05;;;19.20;99.90;;;;;;4953905;29;20039;-72
2022/07/30 02:00:49;;;;;;;0.40;0.40;;;19.20;99.90;;;;;;4969612;28;20059;-72
2022/07/30 02:03:15;;;;;;;0.40;0.40;;;19.40;99.90;;;;;;4954730;29;20118;-72
2022/07/30 02:05:50;;;;;;;0.95;0.95;;;19.20;99.90;;;;;;4969752;28;20058;-72
2022/07/30 02:08:27;;;;;;;0.75;0.75;;;19.20;99.90;;;;;;4955127;29;20059;-72
2022/07/30 02:11:14;;;;;;;0.73;0.70;;;19.20;99.90;;;;;;4950167;29;20555;-72
2022/07/30 02:13:53;;;;;;;0.63;0.63;;;19.10;99.90;;;;;;4917690;29;20492;-73
2022/07/30 02:16:27;;;;;;;1.55;0.77;;;18.90;99.90;;;;;;4934725;29;20050;-73
2022/07/30 02:19:12;;;;;;;0.63;0.63;;;19.10;99.90;;;;;;4934308;29;20032;-73
2022/07/30 02:21:43;;;;;;;0.50;0.50;;;19.20;99.90;;;;;;4934766;29;20106;-73
2022/07/30 02:24:14;;;;;;;;;;;19.00;99.90;;;;;;4934592;29;20038;-73
2022/07/30 02:26:43;;;;;;;0.47;0.47;;;19.10;99.90;;;;;;4935773;29;20336;-73
2022/07/30 02:29:10;;;;;;;0.93;0.57;;;19.10;99.90;;;;;;4918279;29;20036;-73
2022/07/30 02:31:37;;;;;;;0.80;0.57;;;19.00;99.90;;;;;;4934379;29;20510;-73
2022/07/30 02:34:05;;;;;;;0.38;0.38;;;19.00;99.90;;;;;;4934301;29;20028;-73
2022/07/30 02:36:34;;;;;;;0.65;0.65;;;19.10;99.90;;;;;;4934459;29;20024;-73
2022/07/30 02:39:03;;;;;;;0.45;0.45;;;19.00;99.90;;;;;;4933577;29;20039;-72
2022/07/30 02:41:31;;;;;;;0.20;0.10;;;18.90;99.90;;;;;;4934020;29;20047;-72
2022/07/30 02:43:59;;;;;;;0.40;0.40;;;18.70;99.90;;;;;;4917916;29;20035;-72
2022/07/30 02:46:26;;;;;;;1.20;1.05;;;18.70;99.90;;;;;;4934374;29;20086;-72
2022/07/30 02:48:55;;;;;;;0.10;0.10;;;18.60;99.90;;;;;;4933600;29;20359;-72
2022/07/30 02:51:22;;;;;;;0.13;0.13;;;18.60;99.90;;;;;;4934027;29;20039;-72
2022/07/30 02:53:50;;;;;;;0.03;0.03;;;18.60;99.90;;;;;;4933427;29;20091;-72
2022/07/30 02:56:19;;;;;;;8.48;1.17;;;18.60;99.90;;;;;;4933849;29;20082;-72
2022/07/30 02:58:45;;;;;;;0.30;0.30;;;18.60;99.90;;;;;;4933498;29;20040;-71
2022/07/30 03:01:16;;;;;;;1.00;0.40;;;18.60;99.90;;;;;;4933838;29;20396;-72
2022/07/30 03:03:43;;;;;;;;;;;18.50;99.90;;;;;;4933624;29;20031;-72
2022/07/30 03:06:12;;;;;;;1.25;0.57;;;18.40;99.90;;;;;;4933765;29;19921;-72
2022/07/30 03:08:42;;;;;;;0.00;0.00;;;18.40;99.90;;;;;;4933509;29;20032;-72
2022/07/30 03:11:10;;;;;;;0.55;0.55;;;18.40;99.90;;;;;;4933404;29;20118;-71
2022/07/30 03:13:37;;;;;;;0.40;0.40;;;18.30;99.90;;;;;;4934357;29;20373;-72
2022/07/30 03:16:06;;;;;;;0.70;0.70;;;18.40;99.90;;;;;;4947374;29;20094;-71
2022/07/30 03:18:35;;;;;;;0.10;0.10;;;18.30;99.90;;;;;;4952389;28;20426;-72
2022/07/30 03:21:05;;;;;;;0.15;0.15;;;18.20;99.90;;;;;;4968130;28;20053;-72
2022/07/30 03:23:35;;;;;;;0.00;0.00;;;18.10;99.90;;;;;;4967917;28;20111;-72
2022/07/30 03:26:04;;;;;;;2.75;0.77;;;18.30;99.90;;;;;;4967819;28;20034;-71
2022/07/30 03:28:35;;;;;;;3.83;1.45;;;18.30;99.90;;;;;;4936615;29;20487;-72
2022/07/30 03:31:01;;;;;;;3.25;0.38;;;18.30;99.90;;;;;;4952586;29;20035;-72
2022/07/30 03:33:28;;;;;;;0.55;0.55;;;18.20;99.90;;;;;;4951978;29;20043;-72
2022/07/30 03:35:55;;;;;;;1.00;0.98;;;18.30;99.90;;;;;;4968261;28;20043;-72
2022/07/30 03:38:22;;;;;;;0.30;0.30;;;18.30;99.90;;;;;;4968363;28;20027;-72
2022/07/30 03:40:49;;;;;;;0.20;0.20;;;18.30;99.90;;;;;;4936284;29;20043;-72
2022/07/30 03:43:16;;;;;;;0.47;0.40;;;18.20;99.90;;;;;;4916820;29;20050;-72
2022/07/30 03:45:44;;;;;;;0.65;0.65;;;18.10;99.90;;;;;;4934226;29;20494;-73
2022/07/30 03:48:12;;;;;;;0.63;0.63;;;18.00;99.90;;;;;;4933284;29;20028;-73
2022/07/30 03:50:40;;;;;;;0.03;0.03;;;18.00;99.90;;;;;;4932473;29;20031;-73
2022/07/30 03:53:08;;;;;;;2.05;1.50;;;17.80;99.90;;;;;;4933846;29;20035;-72
2022/07/30 03:55:34;;;;;;;1.88;0.88;;;17.80;99.90;;;;;;4934064;29;20512;-72
2022/07/30 03:58:02;;;;;;;0.43;0.43;;;17.70;99.90;;;;;;4932637;29;20035;-73
2022/07/30 04:00:28;;;;;;;0.10;0.10;;;17.60;99.90;;;;;;4933480;29;20443;-73
2022/07/30 04:02:55;;;;;;;3.88;1.75;;;17.70;99.90;;;;;;4933725;29;20042;-73
2022/07/30 04:05:21;;;;;;;0.73;0.73;;;17.70;99.90;;;;;;4932913;29;20023;-73
2022/07/30 04:07:48;;;;;;;0.00;0.00;;;17.70;99.90;;;;;;4934198;29;20473;-73
2022/07/30 04:10:14;;;;;;;0.20;0.20;;;17.60;99.90;;;;;;4933586;29;20492;-72
2022/07/30 04:12:41;;;;;;;0.35;0.35;;;17.60;99.90;;;;;;4932128;29;20122;-72
2022/07/30 04:15:07;;;;;;;0.40;0.40;;;17.60;99.90;;;;;;4923666;29;20027;-73
2022/07/30 04:17:46;;;;;;;0.22;0.22;;;17.70;99.90;;;;;;4967969;28;20067;-72
2022/07/30 04:20:17;;;;;;;0.88;0.88;;;17.60;99.90;;;;;;4967092;28;20104;-73
2022/07/30 04:22:44;;;;;;;2.03;0.57;;;17.60;99.90;;;;;;4953315;28;20455;-72
2022/07/30 04:25:11;;;;;;;0.55;0.55;;;17.60;99.90;;;;;;4952919;28;20039;-73
2022/07/30 04:27:39;;;;;;;0.65;0.57;;;17.60;99.90;;;;;;4967267;28;20027;-73
2022/07/30 04:30:06;;;;;;;0.93;0.73;;;17.60;99.90;;;;;;4967387;28;20526;-73
2022/07/30 04:32:32;;;;;;;0.15;0.15;;;17.60;99.90;;;;;;4951524;29;20059;-73
2022/07/30 04:34:58;;;;;;;0.13;0.13;;;17.60;99.90;;;;;;4968031;28;20035;-73
2022/07/30 04:37:26;;;;;;;0.88;0.68;;;17.50;99.90;;;;;;4955222;28;20471;-74
2022/07/30 04:39:56;;;;;;;0.70;0.60;;;17.50;99.90;;;;;;4955236;29;20034;-74
2022/07/30 04:42:24;;;;;;;4.88;1.83;;;17.50;99.90;;;;;;4954947;28;20036;-74
2022/07/30 04:44:50;;;;;;;1.70;0.45;;;17.60;99.90;;;;;;4955422;29;20103;-74
2022/07/30 04:47:17;;;;;;;0.50;0.45;;;17.60;99.90;;;;;;4955896;29;20068;-74
2022/07/30 04:49:43;;;;;;;1.15;0.95;;;17.60;99.90;;;;;;4956498;29;20034;-74
2022/07/30 04:52:11;;;;;;;0.03;0.03;;;17.80;99.90;;;;;;4954858;28;20041;-74
2022/07/30 04:55:09;;;;;;;0.10;0.10;;;17.80;99.90;;;;;;4955430;28;20034;-74
2022/07/30 04:57:37;;;;;;;0.32;0.30;;;17.90;99.90;;;;;;4955055;28;20159;-74
2022/07/30 05:00:05;;;;;;;0.40;0.40;;;17.80;99.90;;;;;;4955028;28;20141;-74
2022/07/30 05:02:34;;;;;;;0.75;0.65;;;17.90;99.90;;;;;;4938788;29;20027;-74
2022/07/30 05:05:01;;;;;;;0.35;0.35;;;17.80;99.90;;;;;;4955224;28;20035;-73
2022/07/30 05:07:28;;;;;;;0.60;0.60;;;17.70;99.90;;;;;;4954912;29;20030;-74
2022/07/30 05:09:54;;;;;;;0.32;0.32;;;17.60;99.90;;;;;;4954438;28;20035;-73
2022/07/30 05:12:20;;;;;;;0.70;0.70;;;17.70;99.90;;;;;;4954467;28;20400;-72
2022/07/30 05:14:46;;;;;;;0.63;0.63;;;17.80;99.90;;;;;;4952361;28;20038;-72
2022/07/30 05:17:11;;;;;;;0.22;0.17;;;17.70;99.90;;;;;;4935721;29;20027;-72
2022/07/30 05:19:37;;;;;;;0.70;0.30;;;17.70;99.90;;;;;;4951349;29;20098;-72
2022/07/30 05:22:03;;;;;;;2.80;0.90;;;17.90;99.90;;;;;;4936607;29;20539;-72
2022/07/30 05:24:29;;;;;;;0.73;0.68;;;17.90;99.90;;;;;;4936534;29;20027;-71
2022/07/30 05:26:54;;;;;;;1.65;1.48;;;18.10;99.90;;;;;;4935455;29;20395;-72
2022/07/30 05:29:20;;;;;;;0.30;0.30;;;18.10;99.90;;;;;;4936384;29;20024;-72
2022/07/30 05:31:47;;;;;;;0.90;0.90;;;18.10;99.90;;;;;;4951137;29;20028;-72
2022/07/30 05:34:13;;;;;;;1.77;1.02;;;18.30;99.90;;;;;;4950715;29;20052;-72
2022/07/30 05:36:39;;;;;;;0.75;0.55;;;18.20;99.90;;;;;;4936586;29;20082;-72
2022/07/30 05:39:04;;;;;;;0.45;0.45;;;18.20;99.90;;;;;;4934629;29;20127;-72
2022/07/30 05:41:30;;;;;;;4.10;0.63;;;18.30;99.90;;;;;;4935005;29;20087;-72
2022/07/30 05:43:56;;;;;;;0.10;0.10;;;18.30;99.90;;;;;;4935791;29;20392;-72
2022/07/30 05:46:23;;;;;;;0.30;0.25;;;18.30;99.90;;;;;;4934654;29;20042;-72
2022/07/30 05:48:48;;;;;;;1.45;0.95;;;18.40;99.90;;;;;;4950339;28;20023;-72
2022/07/30 05:51:14;;;;;;;0.10;0.10;;;18.40;99.90;;;;;;4935062;29;20051;-72
2022/07/30 05:53:40;;;;;;;0.45;0.45;;;18.60;99.90;;;;;;4934769;29;20028;-72
2022/07/30 05:56:05;;;;;;;0.98;0.82;;;18.60;99.90;;;;;;4936050;29;20028;-72
2022/07/30 05:58:35;;;;;;;0.20;0.20;;;18.60;99.90;;;;;;4936017;29;20508;-72
2022/07/30 06:01:00;;;;;;;3.97;3.13;;;18.70;99.90;;;;;;4936362;29;20034;-72
2022/07/30 06:03:26;;;;;;;0.25;0.25;;;18.80;99.90;;;;;;4946250;29;20031;-73
2022/07/30 06:05:52;;;;;;;0.82;0.70;;;18.80;99.90;;;;;;4934780;29;20070;-72
2022/07/30 06:08:18;;;;;;;2.00;1.23;;;18.90;99.90;;;;;;4935901;29;20481;-72
2022/07/30 06:10:43;;;;;;;0.32;0.32;;;19.00;99.90;;;;;;4950228;29;20035;-72
2022/07/30 06:13:09;;;;;;;1.38;1.00;;;19.10;99.90;;;;;;4935757;29;20036;-72
2022/07/30 06:15:35;;;;;;;0.40;0.40;;;19.00;99.90;;;;;;4950800;29;20399;-72
2022/07/30 06:18:00;;;;;;;0.70;0.70;;;19.20;99.90;;;;;;4934841;29;20495;-72
2022/07/30 06:20:26;;;;;;;0.20;0.20;;;19.10;99.90;;;;;;4933908;29;20027;-72
2022/07/30 06:22:52;;;;;;;1.63;1.52;;;19.20;99.90;;;;;;4935172;29;20122;-72
2022/07/30 06:25:17;;;;;;;1.98;1.80;;;19.20;99.90;;;;;;4935605;29;20059;-72
2022/07/30 06:27:43;;;;;;;3.05;2.00;;;19.30;99.90;;;;;;4934502;29;20038;-72
2022/07/30 06:30:10;;;;;;;0.70;0.70;;;19.40;99.90;;;;;;4935003;29;20103;-72
2022/07/30 06:32:36;;;;;;;1.02;0.70;;;19.50;99.90;;;;;;4935287;29;20123;-74
2022/07/30 06:35:03;;;;;;;1.35;1.00;;;19.60;99.90;;;;;;4934101;29;20083;-71
2022/07/30 06:37:28;;;;;;;1.45;0.93;;;19.60;99.90;;;;;;4941012;28;20119;-71
2022/07/30 06:39:54;;;;;;;0.73;0.73;;;19.70;99.90;;;;;;4935046;29;20118;-72
2022/07/30 06:42:20;;;;;;;0.52;0.38;;;19.80;99.90;;;;;;4934968;29;20032;-72
2022/07/30 06:44:46;;;;;;;2.35;1.60;;;19.90;99.90;;;;;;4934188;29;20031;-73
2022/07/30 06:47:12;;;;;;;0.80;0.80;;;20.00;99.90;;;;;;4934088;29;20523;-73
2022/07/30 06:49:38;;;;;;;1.02;0.95;;;20.00;99.90;;;;;;4935021;29;20028;-73
2022/07/30 06:52:04;;;;;;;0.77;0.77;;;19.90;99.90;;;;;;4934480;29;20039;-71
2022/07/30 06:54:30;;;;;;;41.30;1.05;;;20.00;99.90;;;;;;4945976;28;20066;-71
2022/07/30 06:56:56;;;;;;;0.17;0.17;;;20.10;99.90;;;;;;4967862;28;20062;-74
2022/07/30 06:59:22;;;;;;;1.30;1.08;;;20.20;99.90;;;;;;4939217;28;20428;-73
2022/07/30 07:01:49;;;;;;;22.02;2.33;;;20.20;99.90;;;;;;4948825;29;20039;-73
2022/07/30 07:04:14;;;;;;;1.70;1.60;;;20.30;99.90;;;;;;4953493;28;20067;-73
2022/07/30 07:06:40;;;;;;;0.82;0.75;;;20.40;99.90;;;;;;4954143;28;20063;-70
2022/07/30 07:09:06;;;;;;;0.28;0.28;;;20.40;99.90;;;;;;4936442;29;20032;-73
2022/07/30 07:11:32;;;;;;;0.82;0.82;;;20.50;99.90;;;;;;4934893;29;20032;-73
2022/07/30 07:13:57;;;;;;;0.88;0.75;;;20.60;99.90;;;;;;4933759;29;20043;-73
2022/07/30 07:16:26;;;;;;;0.75;0.55;;;20.60;99.90;;;;;;4934632;29;20492;-73
2022/07/30 07:18:53;;;;;;;1.10;1.00;;;20.70;99.90;;;;;;4934527;29;20032;-74
2022/07/30 07:21:19;;;;;;;0.20;0.20;;;20.80;99.90;;;;;;4949289;29;20063;-73
2022/07/30 07:23:47;;;;;;;1.00;0.90;;;21.00;99.90;;;;;;4958706;28;20122;-73
2022/07/30 07:26:14;;;;;;;0.40;0.40;;;21.00;99.90;;;;;;4972995;28;20026;-74
2022/07/30 07:28:39;;;;;;;2.65;1.35;;;21.10;99.90;;;;;;4935406;28;20480;-73
2022/07/30 07:31:07;;;;;;;0.40;0.40;;;21.10;99.90;;;;;;4934369;29;20090;-74
2022/07/30 07:33:33;;;;;;;2.85;1.38;;;21.10;99.90;;;;;;4933112;29;20031;-73
2022/07/30 07:35:58;;;;;;;2.70;1.38;;;21.20;99.90;;;;;;4934565;29;20027;-69
2022/07/30 07:38:24;;;;;;;26.63;0.52;;;21.30;99.90;;;;;;4934093;29;20495;-68
2022/07/30 07:40:50;;;;;;;1.48;0.57;;;21.40;99.90;;;;;;4934108;29;20032;-70
2022/07/30 07:43:16;;;;;;;1.50;1.17;;;21.50;99.90;;;;;;4932230;29;20119;-70
2022/07/30 07:45:42;;;;;;;1.27;0.70;;;21.60;99.90;;;;;;4933618;29;20024;-69
2022/07/30 07:48:08;;;;;;;1.00;0.93;;;21.70;99.90;;;;;;4940137;29;20039;-70
2022/07/30 07:50:34;;;;;;;4.45;2.05;;;21.90;99.90;;;;;;4957651;28;20027;-70
2022/07/30 07:53:00;;;;;;;0.30;0.30;;;21.90;99.90;;;;;;4944920;28;20031;-70
2022/07/30 07:55:26;;;;;;;1.35;0.88;;;22.20;99.90;;;;;;4945839;28;20076;-71
2022/07/30 07:57:52;;;;;;;0.60;0.60;;;22.30;99.90;;;;;;4942417;29;20089;-73
2022/07/30 08:00:18;;;;;;;0.30;0.30;;;22.10;99.90;;;;;;4942952;28;20043;-72
2022/07/30 08:02:45;;;;;;;0.10;0.10;;;22.00;99.90;;;;;;4944515;29;20093;-72
2022/07/30 08:05:11;;;;;;;2.72;1.25;;;22.30;99.90;;;;;;4943655;29;20035;-71
2022/07/30 08:07:42;;;;;;;0.65;0.65;;;22.50;99.90;;;;;;4943869;29;20484;-72
2022/07/30 08:10:10;;;;;;;2.42;1.35;;;22.70;99.90;;;;;;4958285;28;20270;-72
2022/07/30 08:12:37;;;;;;;1.60;1.42;;;22.80;99.90;;;;;;4921988;29;20058;-72
2022/07/30 08:15:03;;;;;;;1.45;1.20;;;22.90;99.90;;;;;;4943787;28;20035;-72
2022/07/30 08:17:29;;;;;;;0.68;0.68;;;23.00;99.40;;;;;;4943894;29;20532;-72
2022/07/30 08:19:59;;;;;;;0.50;0.50;;;23.10;99.60;;;;;;4951469;29;20039;-72
2022/07/30 08:22:26;;;;;;;0.30;0.30;;;23.20;99.50;;;;;;4968702;28;20032;-71
2022/07/30 08:24:52;;;;;;;0.93;0.65;;;23.30;99.40;;;;;;4954077;28;20760;-72
2022/07/30 08:27:18;;;;;;;1.15;1.05;;;23.30;99.60;;;;;;4947896;28;20024;-72
2022/07/30 08:29:44;;;;;;;4.30;1.75;;;23.60;98.20;;;;;;4964147;28;20035;-72
2022/07/30 08:32:09;;;;;;;0.25;0.25;;;23.70;98.20;;;;;;4952268;28;20614;-71
2022/07/30 08:34:35;;;;;;;1.48;1.38;;;23.80;98.00;;;;;;4952945;28;20027;-72
2022/07/30 08:37:01;;;;;;;6.38;2.45;;;23.70;98.20;;;;;;4952539;28;20027;-72
2022/07/30 08:39:27;;;;;;;0.40;0.40;;;23.80;98.70;;;;;;4950743;28;20042;-72
2022/07/30 08:41:54;;;;;;;1.95;1.52;;;23.80;98.90;;;;;;4952227;28;20035;-72
2022/07/30 08:44:20;;;;;;;1.90;0.63;;;23.80;97.80;;;;;;4951060;28;20038;-72
2022/07/30 08:46:47;;;;;;;0.68;0.43;;;23.80;96.70;;;;;;4950623;29;20028;-72
2022/07/30 08:49:14;;;;;;;1.05;0.93;;;23.80;97.30;;;;;;4950173;29;20406;-71
2022/07/30 08:51:41;;;;;;;0.95;0.50;;;23.90;97.20;;;;;;4951206;29;20028;-71
2022/07/30 08:54:07;;;;;;;0.82;0.82;;;24.00;96.70;;;;;;4969932;28;20419;-71
2022/07/30 08:56:33;;;;;;;2.72;1.27;;;24.00;96.90;;;;;;4967085;28;20027;-71
2022/07/30 08:59:00;;;;;;;0.93;0.90;;;23.90;97.50;;;;;;4966844;28;20059;-71
2022/07/30 09:01:26;;;;;;;1.02;0.93;;;24.00;97.50;;;;;;4952530;28;20078;-71
2022/07/30 09:03:52;;;;;;;1.00;0.90;;;24.20;96.50;;;;;;4966840;28;20406;-72
2022/07/30 09:06:18;;;;;;;1.08;0.80;;;24.40;96.50;;;;;;4947044;28;20035;-72
2022/07/30 09:08:44;;;;;;;1.58;0.35;;;24.40;95.70;;;;;;4934978;29;20065;-71
2022/07/30 09:11:10;;;;;;;0.17;0.17;;;24.50;96.00;;;;;;4945348;28;20078;-73
2022/07/30 09:13:40;;;;;;;1.10;0.70;;;24.50;95.20;;;;;;4952090;28;20039;-73
2022/07/30 09:16:06;;;;;;;0.40;0.30;;;24.50;94.60;;;;;;4944680;29;20028;-73
2022/07/30 09:18:39;;;;;;;0.28;0.28;;;24.60;94.70;;;;;;4952695;28;20032;-72
2022/07/30 09:21:17;;;;;;;1.02;0.85;;;24.80;93.90;;;;;;4952234;28;20522;-73
2022/07/30 09:24:04;;;;;;;0.30;0.30;;;25.10;94.00;;;;;;4961677;28;20038;-72
2022/07/30 09:26:34;;;;;;;0.20;0.20;;;25.20;93.60;;;;;;4935565;29;20024;-73
2022/07/30 09:29:24;;;;;;;0.22;0.20;;;25.30;93.50;;;;;;4948816;29;20110;-72
2022/07/30 09:32:01;;;;;;;0.40;0.22;;;25.20;92.60;;;;;;4953644;28;20046;-72
2022/07/30 09:34:34;;;;;;;0.20;0.20;;;25.10;93.00;;;;;;4955401;28;20506;-73
2022/07/30 09:37:23;;;;;;;0.35;0.35;;;25.40;94.10;;;;;;4954307;29;20035;-73
2022/07/30 09:39:49;;;;;;;0.00;0.00;;;25.60;93.40;;;;;;4954658;28;20039;-73
2022/07/30 09:42:27;;;;;;;0.10;0.10;;;25.30;93.30;;;;;;4970370;28;20037;-72
2022/07/30 09:45:13;;;;;;;0.03;0.03;;;25.40;93.60;;;;;;4926514;28;20607;-71
2022/07/30 09:47:43;;;;;;;6.05;1.88;;;25.40;93.00;;;;;;4954203;28;20031;-73
2022/07/30 09:50:18;;;;;;;0.20;0.20;;;25.40;92.20;;;;;;4937249;28;20050;-70
2022/07/30 09:52:46;;;;;;;0.00;0.00;;;25.60;93.00;;;;;;4938536;29;20050;-69
2022/07/30 09:55:13;;;;;;;0.45;0.22;;;25.60;91.90;;;;;;4970136;28;20413;-68
2022/07/30 09:58:05;;;;;;;0.10;0.08;;;25.70;92.10;;;;;;4955345;28;20035;-68
2022/07/30 10:00:35;;;;;;;0.25;0.20;;;25.70;91.70;;;;;;4949668;28;20062;-68
2022/07/30 10:03:33;;;;;;;0.10;0.10;;;25.70;91.90;;;;;;4950214;29;20028;-68
2022/07/30 10:06:00;;;;;;;8.27;1.52;;;25.90;92.00;;;;;;4935592;29;20082;-69
2022/07/30 10:08:42;;;;;;;2.20;0.65;;;25.70;92.20;;;;;;4934593;29;20384;-69
2022/07/30 10:11:24;;;;;;;0.17;0.17;;;25.80;91.60;;;;;;4936007;29;20547;-70
2022/07/30 10:13:58;;;;;;;0.55;0.55;;;25.80;92.10;;;;;;4949330;29;20059;-70
2022/07/30 10:16:27;;;;;;;1.02;0.55;;;25.90;91.30;;;;;;4936141;29;20037;-69
2022/07/30 10:18:56;;;;;;;0.20;0.20;;;26.10;91.50;;;;;;4950508;29;20070;-70
2022/07/30 10:21:23;;;;;;;0.47;0.32;;;26.10;91.30;;;;;;4950334;29;20028;-71
2022/07/30 10:23:51;;;;;;;0.00;0.00;;;26.10;90.50;;;;;;4948363;29;20035;-73
2022/07/30 10:26:18;;;;;;;0.22;0.20;;;26.20;90.70;;;;;;4969938;28;20031;-72
2022/07/30 10:28:46;;;;;;;0.38;0.25;;;26.30;90.10;;;;;;4945754;28;20032;-72
2022/07/30 10:31:14;;;;;;;0.90;0.60;;;26.50;89.50;;;;;;4931002;29;20043;-72
2022/07/30 10:33:40;;;;;;;0.20;0.20;;;26.40;89.20;;;;;;4940021;29;20480;-72
2022/07/30 10:36:09;;;;;;;0.30;0.30;;;26.60;89.70;;;;;;4933671;29;20027;-74
2022/07/30 10:38:39;;;;;;;0.00;0.00;;;26.70;89.40;;;;;;4934751;29;20042;-73
2022/07/30 10:41:28;;;;;;;1.10;0.30;;;26.80;89.70;;;;;;4933229;29;20156;-72
2022/07/30 10:44:52;;;;;;;0.10;0.10;;;26.50;87.90;;;;;;4932408;29;20051;-73
2022/07/30 10:47:18;;;;;;;0.65;0.08;;;26.60;88.70;;;;;;4916633;29;20036;-73
2022/07/30 10:50:17;;;;;;;0.30;0.30;;;26.70;89.10;;;;;;4919343;29;20036;-73
2022/07/30 10:53:02;;;;;;;0.10;0.00;;;27.10;88.60;;;;;;4931029;29;20116;-73
2022/07/30 10:55:36;;;;;;;0.43;0.20;;;27.40;86.50;;;;;;4940040;29;20067;-73
2022/07/30 10:58:12;;;;;;;0.15;0.15;;;27.60;86.90;;;;;;4940329;29;20024;-73
2022/07/30 11:00:53;;;;;;;0.32;0.32;;;27.50;85.60;;;;;;4926659;29;20106;-73
2022/07/30 11:03:27;;;;;;;0.50;0.28;;;27.10;83.90;;;;;;4928303;29;20039;-72
2022/07/30 11:06:14;;;;;;;1.90;0.28;;;27.20;84.60;;;;;;4938832;29;20555;-73
2022/07/30 11:08:44;;;;;;;0.28;0.25;;;27.50;81.90;;;;;;4927902;29;20036;-75
2022/07/30 11:11:22;;;;;;;0.17;0.10;;;27.50;82.50;;;;;;4926255;29;20031;-73
2022/07/30 11:13:59;;;;;;;1.38;0.63;;;27.40;83.50;;;;;;4932804;29;20086;-73
2022/07/30 11:16:31;;;;;;;0.05;0.03;;;27.50;83.60;;;;;;4933516;29;20510;-74
2022/07/30 11:19:15;;;;;;;0.30;0.25;;;27.80;82.40;;;;;;4933828;29;20110;-74
2022/07/30 11:21:43;;;;;;;0.00;0.00;;;28.00;82.80;;;;;;4932696;29;20396;-75
2022/07/30 11:24:46;;;;;;;0.28;0.28;;;27.90;81.60;;;;;;4932318;29;20488;-73
2022/07/30 11:27:45;;;;;;;1.00;0.80;;;27.70;81.90;;;;;;4934200;29;20035;-74
2022/07/30 11:30:20;;;;;;;0.32;0.32;;;27.60;81.70;;;;;;4932376;29;20039;-74
2022/07/30 11:32:48;;;;;;;0.40;0.40;;;27.50;81.10;;;;;;4918527;29;20028;-73
2022/07/30 11:35:30;;;;;;;1.00;0.70;;;27.30;81.80;;;;;;4933381;29;20075;-74
2022/07/30 11:38:14;;;;;;;0.63;0.63;;;27.60;82.50;;;;;;4924836;29;20016;-74
2022/07/30 11:40:47;;;;;;;0.10;0.10;;;27.70;81.60;;;;;;4932623;29;20035;-74
2022/07/30 11:43:28;;;;;;;1.25;0.55;;;27.90;81.70;;;;;;4933275;29;20046;-74
2022/07/30 11:46:12;;;;;;;0.38;0.20;;;28.20;80.80;;;;;;4932081;29;20712;-74
2022/07/30 11:48:55;;;;;;;0.70;0.43;;;28.70;79.70;;;;;;4943793;29;20031;-74
2022/07/30 11:51:21;;;;;;;0.00;0.00;;;28.80;80.90;;;;;;4924185;29;20108;-73
2022/07/30 11:54:05;;;;;;;0.32;0.20;;;28.50;79.60;;;;;;4932727;29;20028;-74
2022/07/30 11:56:33;;;;;;;0.35;0.20;;;28.50;80.20;;;;;;4946303;29;20042;-74
2022/07/30 11:59:07;;;;;;;0.13;0.13;;;28.40;78.40;;;;;;4944978;29;20036;-75
2022/07/30 12:01:34;;;;;;;1.55;0.85;;;28.50;77.40;;;;;;4926725;29;20087;-74
2022/07/30 12:04:05;;;;;;;0.17;0.13;;;29.00;78.50;;;;;;4931539;29;20020;-75
2022/07/30 12:06:31;;;;;;;3.70;1.55;;;29.20;77.40;;;;;;4932909;29;20035;-75
2022/07/30 12:08:58;;;;;;;1.80;0.77;;;29.40;78.10;;;;;;4946489;29;20039;-71
2022/07/30 12:11:31;;;;;;;0.90;0.85;;;29.40;77.50;;;;;;4931710;29;20122;-75
2022/07/30 12:14:00;;;;;;;0.00;0.00;;;29.00;75.60;;;;;;4931178;29;20493;-73
2022/07/30 12:16:28;;;;;;;3.08;1.35;;;29.00;75.50;;;;;;4919853;28;20070;-72
2022/07/30 12:18:54;;;;;;;0.28;0.28;;;29.10;76.20;;;;;;4934510;29;20035;-76
2022/07/30 12:21:20;;;;;;;0.00;0.00;;;29.30;75.60;;;;;;4963154;28;20114;-76
2022/07/30 12:24:08;;;;;;;0.52;0.50;;;29.70;76.90;;;;;;4945251;28;20032;-67
2022/07/30 12:26:34;;;;;;;0.00;0.00;;;29.80;74.70;;;;;;4966296;28;20089;-67
2022/07/30 12:29:09;;;;;;;0.15;0.15;;;29.70;76.30;;;;;;4965730;28;20365;-76
2022/07/30 12:31:35;;;;;;;0.52;0.52;;;30.10;74.50;;;;;;4951920;28;20906;-68
2022/07/30 12:34:01;;;;;;;0.93;0.50;;;30.50;72.90;;;;;;4931238;29;20032;-65
2022/07/30 12:36:33;;;;;;;0.20;0.15;;;30.70;73.50;;;;;;4947643;29;20042;-61
2022/07/30 12:39:02;;;;;;;0.13;0.08;;;30.90;74.40;;;;;;4946299;29;20048;-62
2022/07/30 12:41:46;;;;;;;0.55;0.55;;;30.90;72.30;;;;;;4947891;29;20119;-61
2022/07/30 12:44:39;;;;;;;0.10;0.10;;;30.10;72.00;;;;;;4958499;28;20036;-61
2022/07/30 12:47:18;;;;;;;0.63;0.15;;;30.50;73.60;;;;;;4951794;28;20031;-64
2022/07/30 12:49:44;;;;;;;0.15;0.15;;;30.80;74.90;;;;;;4949539;28;20599;-69
2022/07/30 12:52:32;;;;;;;0.10;0.10;;;30.90;71.50;;;;;;4941535;28;20046;-68
2022/07/30 12:55:05;;;;;;;0.57;0.40;;;30.90;69.00;;;;;;4947160;28;20027;-68
2022/07/30 12:58:04;;;;;;;0.20;0.20;;;30.60;68.80;;;;;;4945185;28;20031;-68
2022/07/30 13:00:43;;;;;;;0.10;0.10;;;30.60;69.80;;;;;;4950797;29;20050;-68